createdAt,value
2022-10-12T03:55:15.331Z,77.82
2022-10-12T03:58:38.627Z,78.06
2022-10-12T04:02:01.889Z,78.02
2022-10-12T04:05:25.635Z,77.96
2022-10-12T04:08:50.991Z,78.35
2022-10-12T04:12:15.172Z,78.47
2022-10-12T04:15:38.622Z,78.68
2022-10-12T04:19:02.872Z,78.59
2022-10-12T04:22:26.574Z,78.62
2022-10-12T04:25:49.937Z,78.87
2022-10-12T04:29:14.333Z,79.20
2022-10-12T04:32:37.696Z,79.27
2022-10-12T04:36:01.271Z,79.38
2022-10-12T04:39:25.059Z,79.68
2022-10-12T04:42:48.595Z,79.64
2022-10-12T04:46:11.881Z,79.50
2022-10-12T04:49:36.049Z,79.69
2022-10-12T04:53:00.163Z,79.53
2022-10-12T04:56:23.523Z,79.59
2022-10-12T04:59:47.074Z,79.63
2022-10-12T05:03:10.300Z,79.56
2022-10-12T05:06:33.484Z,79.52
2022-10-12T05:09:56.835Z,79.68
2022-10-12T05:13:20.090Z,79.72
2022-10-12T05:16:43.419Z,79.72
2022-10-12T05:20:10.209Z,79.90
2022-10-12T05:23:33.788Z,79.75
2022-10-12T05:26:57.132Z,79.98
2022-10-12T05:30:20.357Z,79.96
2022-10-12T05:33:43.629Z,79.75
2022-10-12T05:37:06.868Z,79.81
2022-10-12T05:40:29.995Z,80.11
2022-10-12T05:43:53.411Z,80.03
2022-10-12T05:47:16.642Z,80.15
2022-10-12T05:50:39.809Z,80.30
2022-10-12T05:54:03.246Z,80.32
2022-10-12T05:57:26.855Z,80.46
2022-10-12T06:00:50.559Z,80.33
2022-10-12T06:04:13.910Z,80.05
2022-10-12T06:07:37.300Z,79.80
2022-10-12T06:11:00.878Z,79.66
2022-10-12T06:14:24.226Z,79.04
2022-10-12T06:17:47.580Z,78.56
2022-10-12T06:24:54.384Z,78.02
2022-10-12T06:28:19.472Z,77.69
2022-10-12T06:31:44.694Z,78.51
2022-10-12T06:35:11.175Z,78.46
2022-10-12T06:38:34.811Z,78.25
2022-10-12T06:41:58.042Z,78.02
2022-10-12T06:45:24.794Z,77.65
2022-10-12T06:48:48.121Z,77.18
2022-10-12T06:52:11.329Z,76.69
2022-10-12T06:55:34.699Z,76.03
2022-10-12T06:58:58.228Z,74.96
2022-10-12T07:02:21.703Z,74.39
2022-10-12T07:05:44.923Z,74.35
2022-10-12T07:09:08.350Z,73.75
2022-10-12T07:12:31.620Z,72.96
2022-10-12T07:15:54.857Z,72.30
2022-10-12T07:19:18.132Z,71.61
2022-10-12T07:22:41.358Z,71.35
2022-10-12T07:26:04.693Z,70.75
2022-10-12T07:29:31.118Z,70.97
2022-10-12T07:32:55.252Z,70.92
2022-10-12T07:36:21.745Z,70.89
2022-10-12T07:39:45.465Z,70.32
2022-10-12T07:43:16.623Z,69.89
2022-10-12T07:46:40.727Z,69.77
2022-10-12T07:50:04.914Z,68.96
2022-10-12T07:53:28.140Z,68.74
2022-10-12T07:56:51.452Z,68.78
2022-10-12T08:00:15.786Z,68.83
2022-10-12T08:03:39.007Z,68.61
2022-10-12T08:07:02.247Z,68.44
2022-10-12T08:10:25.513Z,68.51
2022-10-12T08:13:49.118Z,68.39
2022-10-12T08:17:12.373Z,68.29
2022-10-12T08:20:38.736Z,68.32
2022-10-12T08:24:01.920Z,68.39
2022-10-12T08:27:25.648Z,68.24
2022-10-12T08:30:49.370Z,68.00
2022-10-12T08:34:13.678Z,67.61
2022-10-12T08:37:37.047Z,67.34
2022-10-12T08:41:10.470Z,67.16
2022-10-12T08:44:51.965Z,66.99
2022-10-12T08:48:18.276Z,66.72
2022-10-12T08:51:48.982Z,66.58
2022-10-12T08:55:23.692Z,66.37
2022-10-12T08:58:48.922Z,65.94
2022-10-12T09:02:30.930Z,65.56
2022-10-12T09:06:03.787Z,65.13
2022-10-12T09:09:43.030Z,65.01
2022-10-12T09:13:18.476Z,64.92
2022-10-12T09:16:45.409Z,64.77
2022-10-12T09:20:18.329Z,64.44
2022-10-12T09:23:43.547Z,64.08
2022-10-12T09:27:15.056Z,63.64
2022-10-12T09:30:48.364Z,63.27
2022-10-12T09:34:16.716Z,63.07
2022-10-12T09:37:44.120Z,62.79
2022-10-12T09:41:16.647Z,62.05
2022-10-12T09:44:43.222Z,61.77
2022-10-12T09:48:16.331Z,61.73
2022-10-12T09:51:40.677Z,61.42
2022-10-12T09:55:07.599Z,61.18
2022-10-12T09:58:39.646Z,60.78
2022-10-12T10:02:15.051Z,60.37
2022-10-12T10:05:39.026Z,60.12
2022-10-12T10:09:02.945Z,59.87
2022-10-12T10:12:27.347Z,59.23
2022-10-12T10:15:52.835Z,58.91
2022-10-12T10:19:19.699Z,58.61
2022-10-12T10:22:48.514Z,58.26
2022-10-12T10:26:14.755Z,58.49
2022-10-12T10:29:39.943Z,58.26
2022-10-12T10:33:16.825Z,57.80
2022-10-12T10:36:45.242Z,57.03
2022-10-12T10:40:19.691Z,57.51
2022-10-12T10:43:47.035Z,57.23
2022-10-12T10:47:12.884Z,56.03
2022-10-12T10:50:39.548Z,55.56
2022-10-12T10:54:17.180Z,56.01
2022-10-12T10:57:43.743Z,56.05
2022-10-12T11:01:18.791Z,55.46
2022-10-12T11:04:46.265Z,55.26
2022-10-12T11:08:16.938Z,55.10
2022-10-12T11:11:42.697Z,54.68
2022-10-12T11:15:15.461Z,54.08
2022-10-12T11:18:44.216Z,53.89
2022-10-12T11:22:14.420Z,53.54
2022-10-12T11:25:49.804Z,52.83
2022-10-12T11:29:17.084Z,52.73
2022-10-12T11:32:43.176Z,52.74
2022-10-12T11:36:10.966Z,52.63
2022-10-12T11:39:38.061Z,52.46
2022-10-12T11:43:07.548Z,51.71
2022-10-12T11:46:33.604Z,51.93
2022-10-12T11:50:00.221Z,52.08
2022-10-12T11:53:31.607Z,51.85
2022-10-12T11:56:58.764Z,51.67
2022-10-12T12:00:25.941Z,51.69
2022-10-12T12:04:39.765Z,51.36
2022-10-12T12:07:56.493Z,51.00
2022-10-12T12:11:22.321Z,51.22
2022-10-12T12:15:01.747Z,50.47
2022-10-12T12:18:25.949Z,49.67
2022-10-12T12:22:22.737Z,50.44
2022-10-12T12:25:46.224Z,50.75
2022-10-12T12:29:15.812Z,50.32
2022-10-12T12:32:46.835Z,50.36
2022-10-12T12:36:12.972Z,50.73
2022-10-12T12:39:37.833Z,51.11
2022-10-12T12:43:34.943Z,51.25
2022-10-12T12:47:44.155Z,51.32
2022-10-12T12:51:03.285Z,51.24
2022-10-12T12:54:28.303Z,50.87
2022-10-12T12:58:21.295Z,50.78
2022-10-12T13:02:12.336Z,50.83
2022-10-12T13:06:10.966Z,50.72
2022-10-12T13:10:11.959Z,50.40
2022-10-12T13:13:50.096Z,50.30
2022-10-12T13:17:34.427Z,50.25
2022-10-12T13:20:58.192Z,49.67
2022-10-12T13:24:24.786Z,49.61
2022-10-12T13:27:50.206Z,49.87
2022-10-12T13:31:19.898Z,50.17
2022-10-12T13:34:43.364Z,50.31
2022-10-12T13:38:19.974Z,50.40
2022-10-12T13:41:45.306Z,50.49
2022-10-12T13:45:15.717Z,50.62
2022-10-12T13:48:59.634Z,50.79
2022-10-12T13:52:31.658Z,50.78
2022-10-12T13:56:01.039Z,51.00
2022-10-12T13:59:26.759Z,51.17
2022-10-12T14:02:56.039Z,50.87
2022-10-12T14:06:30.336Z,50.04
2022-10-12T14:09:57.043Z,50.23
2022-10-12T14:13:26.723Z,50.01
2022-10-12T14:16:50.788Z,50.65
2022-10-12T14:20:26.478Z,50.73
2022-10-12T14:23:52.812Z,50.39
2022-10-12T14:27:23.777Z,50.40
2022-10-12T14:30:52.084Z,50.43
2022-10-12T14:34:50.778Z,50.54
2022-10-12T14:38:41.756Z,50.46
2022-10-12T14:42:18.029Z,50.57
2022-10-12T14:45:41.292Z,50.35
2022-10-12T14:49:04.775Z,50.08
2022-10-12T14:52:35.615Z,49.72
2022-10-12T14:55:58.916Z,49.49
2022-10-12T14:59:22.294Z,49.60
2022-10-12T15:02:46.278Z,49.68
2022-10-12T15:06:12.738Z,49.76
2022-10-12T15:09:35.897Z,49.80
2022-10-12T15:12:59.060Z,49.52
2022-10-12T15:16:24.826Z,49.55
2022-10-12T15:19:49.493Z,49.67
2022-10-12T15:23:13.742Z,49.55
2022-10-12T15:26:42.092Z,49.63
2022-10-12T15:30:07.983Z,49.82
2022-10-12T15:33:31.896Z,49.94
2022-10-12T15:36:55.373Z,50.17
2022-10-12T15:40:20.320Z,50.39
2022-10-12T15:43:43.631Z,50.43
2022-10-12T15:47:08.623Z,50.65
2022-10-12T15:50:37.669Z,50.76
2022-10-12T15:54:01.296Z,50.96
2022-10-12T15:57:24.508Z,51.06
2022-10-12T16:00:48.086Z,51.26
2022-10-12T16:04:14.394Z,51.41
2022-10-12T16:07:37.596Z,51.67
2022-10-12T16:11:03.158Z,51.77
2022-10-12T16:14:26.608Z,52.07
2022-10-12T16:17:50.142Z,52.30
2022-10-12T16:21:13.396Z,52.51
2022-10-12T16:24:37.192Z,52.83
2022-10-12T16:28:01.308Z,53.24
2022-10-12T16:31:24.828Z,53.63
2022-10-12T16:34:48.267Z,53.82
2022-10-12T16:38:13.851Z,54.32
2022-10-12T16:41:37.041Z,54.65
2022-10-12T16:45:01.235Z,55.43
2022-10-12T16:48:24.565Z,55.73
2022-10-12T16:51:48.561Z,56.03
2022-10-12T16:55:11.902Z,56.48
2022-10-12T16:58:35.378Z,56.66
2022-10-12T17:01:58.665Z,56.88
2022-10-12T17:05:21.937Z,57.23
2022-10-12T17:08:45.429Z,57.41
2022-10-12T17:12:09.379Z,57.96
2022-10-12T17:15:32.548Z,58.10
2022-10-12T17:18:59.610Z,58.46
2022-10-12T17:22:23.374Z,58.73
2022-10-12T17:25:47.218Z,59.01
2022-10-12T17:29:12.612Z,59.24
2022-10-12T17:32:37.233Z,59.28
2022-10-12T17:36:04.384Z,59.54
2022-10-12T17:39:29.960Z,59.80
2022-10-12T17:42:53.162Z,60.06
2022-10-12T17:46:21.570Z,60.23
2022-10-12T17:49:45.888Z,60.54
2022-10-12T17:53:09.426Z,60.84
2022-10-12T17:56:33.520Z,61.13
2022-10-12T17:59:56.784Z,61.36
2022-10-12T18:03:24.839Z,61.58
2022-10-12T18:06:49.020Z,61.99
2022-10-12T18:10:12.341Z,62.58
2022-10-12T18:13:37.413Z,62.67
2022-10-12T18:17:00.941Z,62.73
2022-10-12T18:20:24.380Z,62.94
2022-10-12T18:23:48.233Z,63.25
2022-10-12T18:27:11.997Z,63.46
2022-10-12T18:30:35.826Z,63.53
2022-10-12T18:33:59.846Z,63.86
2022-10-12T18:37:23.108Z,63.86
2022-10-12T18:40:47.179Z,64.27
2022-10-12T18:44:11.691Z,64.63
2022-10-12T18:47:37.011Z,64.35
2022-10-12T18:51:04.877Z,64.41
2022-10-12T18:54:28.249Z,64.51
2022-10-12T18:57:51.676Z,64.27
2022-10-12T19:01:17.374Z,64.62
2022-10-12T19:04:41.193Z,64.70
2022-10-12T19:08:04.559Z,64.86
2022-10-12T19:11:28.733Z,65.37
2022-10-12T19:14:52.012Z,65.22
2022-10-12T19:18:15.374Z,65.35
2022-10-12T19:21:39.854Z,65.24
2022-10-12T19:25:03.376Z,65.44
2022-10-12T19:28:26.770Z,65.35
2022-10-12T19:31:51.634Z,65.48
2022-10-12T19:35:15.378Z,65.50
2022-10-12T19:38:39.441Z,65.66
2022-10-12T19:42:03.456Z,65.78
2022-10-12T19:45:26.992Z,65.84
2022-10-12T19:48:51.782Z,66.10
2022-10-12T19:52:15.467Z,66.16
2022-10-12T19:55:39.031Z,66.27
2022-10-12T19:59:02.292Z,66.36
2022-10-12T20:02:26.048Z,66.33
2022-10-12T20:05:49.562Z,66.41
2022-10-12T20:09:12.904Z,66.57
2022-10-12T20:12:36.811Z,66.69
2022-10-12T20:16:00.090Z,66.81
2022-10-12T20:19:23.365Z,66.87
2022-10-12T20:22:46.546Z,66.94
2022-10-12T20:26:13.260Z,67.17
2022-10-12T20:29:36.499Z,67.09
2022-10-12T20:33:00.289Z,67.46
2022-10-12T20:36:26.242Z,67.46
2022-10-12T20:39:52.860Z,67.76
2022-10-12T20:43:16.403Z,67.58
2022-10-12T20:46:44.922Z,67.77
2022-10-12T20:50:09.161Z,68.03
2022-10-12T20:53:33.596Z,68.13
2022-10-12T20:56:57.087Z,68.31
2022-10-12T21:00:21.042Z,68.54
2022-10-12T21:03:45.597Z,68.63
2022-10-12T21:07:12.172Z,68.72
2022-10-12T21:10:39.986Z,68.74
2022-10-12T21:14:03.426Z,69.04
2022-10-12T21:17:26.617Z,69.28
2022-10-12T21:21:05.314Z,69.16
2022-10-12T21:24:28.859Z,69.32
2022-10-12T21:27:52.306Z,69.30
2022-10-12T21:31:16.629Z,69.40
2022-10-12T21:34:39.874Z,69.66
2022-10-12T21:38:03.401Z,69.93
2022-10-12T21:41:28.618Z,69.95
2022-10-12T21:44:52.166Z,69.85
2022-10-12T21:48:15.662Z,70.01
2022-10-12T21:51:39.165Z,70.02
2022-10-12T21:55:02.876Z,70.45
2022-10-12T21:58:26.506Z,70.53
2022-10-12T22:01:50.348Z,70.58
2022-10-12T22:05:13.791Z,70.67
2022-10-12T22:08:37.352Z,70.67
2022-10-12T22:12:02.263Z,70.87
2022-10-12T22:15:25.669Z,71.32
2022-10-12T22:18:49.649Z,70.92
2022-10-12T22:22:13.024Z,71.49
2022-10-12T22:25:36.219Z,71.60
2022-10-12T22:28:59.887Z,71.51
2022-10-12T22:32:23.569Z,71.73
2022-10-12T22:35:53.562Z,71.75
2022-10-12T22:39:17.196Z,71.91
2022-10-12T22:42:40.865Z,72.43
2022-10-12T22:46:04.601Z,72.26
2022-10-12T22:49:28.154Z,72.50
